This is the latest recevied weather packets stored in our database for station/object W1RCY. If no packets are shown the sender has not sent any weather packets the latest 10 day(s).
| Time | Temp. | Humidity | Pressure | Rain* | Wind** | Luminosity | Snow |
|---|---|---|---|---|---|---|---|
| 1777191197 | 2.22° C | 82% | 1016.6 hPa | 0 mm | - | 0 W/m² | - |
| 1777190895 | 2.22° C | 82% | 1016.8 hPa | 0 mm | - | 0 W/m² | - |
| 1777190592 | 2.22° C | 83% | 1016.7 hPa | 0 mm | - | 0 W/m² | - |
| 1777190287 | 1.67° C | 85% | 1016.7 hPa | 0 mm | - | 0 W/m² | - |
| 1777189983 | 1.11° C | 86% | 1016.8 hPa | 0 mm | - | 0 W/m² | - |
| 1777189680 | 1.11° C | 87% | 1016.6 hPa | 0 mm | - | 0 W/m² | - |
| 1777189379 | 1.11° C | 88% | 1016.7 hPa | 0 mm | - | 0 W/m² | - |
| 1777189075 | 1.11° C | 88% | 1016.6 hPa | 0 mm | - | 0 W/m² | - |
| 1777188772 | 1.11° C | 88% | 1016.6 hPa | 0 mm | - | 0 W/m² | - |
| 1777188469 | 1.11° C | 87% | 1016.5 hPa | 0 mm | - | 0 W/m² | - |
| 1777188168 | 1.11° C | 87% | 1016.6 hPa | 0 mm | - | 0 W/m² | - |
| 1777187864 | 1.11° C | 87% | 1016.6 hPa | 0 mm | - | 0 W/m² | - |
| 1777187560 | 1.11° C | 86% | 1016.3 hPa | 0 mm | - | 0 W/m² | - |
| 1777187256 | 1.67° C | 85% | 1016.6 hPa | 0 mm | - | 0 W/m² | - |
| 1777186951 | 2.22° C | 84% | 1016.4 hPa | 0 mm | - | 0 W/m² | - |
| 1777186647 | 2.22° C | 84% | 1016.4 hPa | 0 mm | - | 0 W/m² | - |
| 1777186346 | 2.22° C | 84% | 1016.3 hPa | 0 mm | - | 0 W/m² | - |
| 1777186041 | 2.22° C | 83% | 1016.4 hPa | 0 mm | - | 0 W/m² | - |
| 1777185740 | 2.22° C | 82% | 1016.3 hPa | 0 mm | - | 0 W/m² | - |
| 1777185439 | 2.78° C | 81% | 1016.4 hPa | 0 mm | - | 0 W/m² | - |
| 1777185134 | 3.33° C | 81% | 1016.1 hPa | 0 mm | - | 0 W/m² | - |
| 1777184829 | 3.33° C | 80% | 1016.3 hPa | 0 mm | - | 0 W/m² | - |
| 1777184524 | 3.89° C | 78% | 1016.2 hPa | 0 mm | - | 0 W/m² | - |
| 1777184219 | 3.89° C | 77% | 1016.3 hPa | 0 mm | - | 0 W/m² | - |
| 1777183916 | 4.44° C | 71% | 1016.5 hPa | 0 mm | - | 0 W/m² | - |
* Rain latest hour (hover to see other rain measurements)
** Current wind speed in m/s (hover to see current wind gust speed)